Swoope, Virginia
Current Conditions -  °F | °C
As of 11:15 PM on Tuesday 25 Nov 2014 (Local Time) from KW13 Reporting Station
Clear Clear  
Wind Chill: 44°   Ceiling: Unl
Heat Index: 44°   Visibility: 10mi
Dew Point: 28°   Wind: 0mph
Humidity: 55%   Direction: NA
Pressure: 30.11"   Gusts: NA
Location:  38.16°N, 79.21°W
Report Text: KW13 260415Z AUTO 00000KT 10SM CLR 06/M02 A3011 RMK AO1 T00641020
Loading
Personal Weather Stations






























Interactive Weather Map New forecast layout! Learn more

10-Day Weather Forecast

Advertisements
Track Severe Weather on mobile